createdAt,value
2017-11-12T00:01:27.894Z,98063.06
2017-11-12T00:03:59.706Z,98062.66
2017-11-12T00:06:30.735Z,98057.06
2017-11-12T00:09:02.256Z,98053.95
2017-11-12T00:11:33.256Z,98055.52
2017-11-12T00:14:04.460Z,98054.48
2017-11-12T00:16:35.653Z,98050.70
2017-11-12T00:19:07.109Z,98044.95
2017-11-12T00:21:37.958Z,98036.33
2017-11-12T00:24:14.443Z,98037.59
2017-11-12T00:26:45.983Z,98035.68
2017-11-12T00:29:17.614Z,98028.34
2017-11-12T00:31:48.998Z,98031.65
2017-11-12T00:34:20.455Z,98030.20
2017-11-12T00:36:51.069Z,98033.67
2017-11-12T00:39:23.397Z,98028.84
2017-11-12T00:41:54.352Z,98026.86
2017-11-12T00:44:25.898Z,98033.67
2017-11-12T00:46:58.549Z,98030.48
2017-11-12T00:49:29.878Z,98029.36
2017-11-12T00:52:00.816Z,98033.02
2017-11-12T00:54:32.882Z,98032.36
2017-11-12T00:57:03.561Z,98038.88
2017-11-12T00:59:34.518Z,98034.45
2017-11-12T01:02:05.187Z,98033.15
2017-11-12T01:04:36.416Z,98028.95
2017-11-12T01:07:07.306Z,98036.63
2017-11-12T01:09:42.286Z,98033.63
2017-11-12T01:12:20.963Z,98034.10
2017-11-12T01:14:51.748Z,98029.16
2017-11-12T01:17:22.720Z,98027.64
2017-11-12T01:19:53.926Z,98028.09
2017-11-12T01:22:24.630Z,98033.78
2017-11-12T01:24:57.746Z,98028.09
2017-11-12T01:27:29.236Z,98027.44
2017-11-12T01:30:00.923Z,98029.30
2017-11-12T01:32:31.768Z,98023.55
2017-11-12T01:35:02.750Z,98024.45
2017-11-12T01:37:33.449Z,98017.18
2017-11-12T01:40:09.506Z,98019.84
2017-11-12T01:42:45.176Z,98024.48
2017-11-12T01:45:16.369Z,98022.17
2017-11-12T01:47:47.935Z,98023.25
2017-11-12T01:50:20.622Z,98026.06
2017-11-12T01:52:53.859Z,98021.02
2017-11-12T01:55:29.367Z,98019.19
2017-11-12T01:58:01.723Z,98007.22
2017-11-12T02:00:32.996Z,98009.13
2017-11-12T02:03:03.860Z,98004.08
2017-11-12T02:05:34.609Z,98003.30
2017-11-12T02:08:06.968Z,98000.97
2017-11-12T02:10:37.913Z,98008.56
2017-11-12T02:13:09.675Z,98003.63
2017-11-12T02:15:47.211Z,98006.92
2017-11-12T02:18:18.260Z,97997.05
2017-11-12T02:20:52.066Z,98006.27
2017-11-12T02:23:23.505Z,98008.20
2017-11-12T02:25:54.813Z,98003.78
2017-11-12T02:28:26.609Z,98000.67
2017-11-12T02:30:57.720Z,97999.05
2017-11-12T02:33:50.805Z,97998.75
2017-11-12T02:36:24.268Z,97995.61
2017-11-12T02:38:59.830Z,97996.09
2017-11-12T02:41:30.830Z,97991.84
2017-11-12T02:44:01.746Z,97997.16
2017-11-12T02:46:32.653Z,97995.97
2017-11-12T02:49:07.778Z,97997.34
2017-11-12T02:51:38.660Z,97998.42
2017-11-12T02:54:10.071Z,97998.42
2017-11-12T02:56:44.383Z,97997.70
2017-11-12T02:59:18.537Z,97994.17
2017-11-12T03:01:55.893Z,97996.03
2017-11-12T03:04:28.488Z,98002.55
2017-11-12T03:06:59.916Z,98003.50
2017-11-12T03:09:46.027Z,98002.75
2017-11-12T03:12:18.008Z,98007.47
2017-11-12T03:14:51.121Z,98005.41
2017-11-12T03:17:23.200Z,98004.99
2017-11-12T03:19:54.076Z,98001.88
2017-11-12T03:22:26.250Z,97998.89
2017-11-12T03:24:57.748Z,98003.55
2017-11-12T03:27:32.922Z,98000.58
2017-11-12T03:30:10.256Z,97997.53
2017-11-12T03:32:42.879Z,97998.48
2017-11-12T03:35:13.906Z,98002.49
2017-11-12T03:37:45.749Z,98001.50
2017-11-12T03:40:17.795Z,97996.35
2017-11-12T03:42:48.860Z,97999.10
2017-11-12T03:45:19.927Z,98001.27
2017-11-12T03:47:50.693Z,97998.41
2017-11-12T03:50:21.987Z,97992.06
2017-11-12T03:52:52.868Z,97992.31
2017-11-12T03:55:23.697Z,97988.78
2017-11-12T03:57:57.501Z,97980.53
2017-11-12T04:00:28.919Z,97982.38
2017-11-12T04:02:59.638Z,97971.92
2017-11-12T04:05:30.491Z,97971.63
2017-11-12T04:08:01.477Z,97966.98
2017-11-12T04:10:44.504Z,97962.92
2017-11-12T04:13:16.648Z,97962.80
2017-11-12T04:15:54.922Z,97963.65
2017-11-12T04:18:25.694Z,97956.77
2017-11-12T04:20:56.685Z,97963.05
2017-11-12T04:23:28.068Z,97956.14
2017-11-12T04:25:58.852Z,97951.99
2017-11-12T04:28:30.419Z,97948.64
2017-11-12T04:31:01.353Z,97946.38
2017-11-12T04:33:32.440Z,97940.12
2017-11-12T04:36:03.982Z,97943.89
2017-11-12T04:38:35.950Z,97936.04
2017-11-12T04:41:07.705Z,97928.75
2017-11-12T04:43:39.292Z,97925.11
2017-11-12T04:46:11.226Z,97920.20
2017-11-12T04:48:42.752Z,97925.52
2017-11-12T04:51:13.698Z,97925.88
2017-11-12T04:53:46.612Z,97929.95
2017-11-12T04:56:19.703Z,97918.70
2017-11-12T04:58:50.928Z,97921.75
2017-11-12T05:01:22.430Z,97919.97
2017-11-12T05:03:53.563Z,97920.38
2017-11-12T05:06:28.200Z,97916.94
2017-11-12T05:08:59.210Z,97907.06
2017-11-12T05:11:30.100Z,97909.45
2017-11-12T05:14:03.696Z,97910.86
2017-11-12T05:16:36.388Z,97906.32
2017-11-12T05:19:07.503Z,97902.22
2017-11-12T05:21:38.652Z,97899.34
2017-11-12T05:24:11.073Z,97898.48
2017-11-12T05:26:42.220Z,97895.31
2017-11-12T05:29:12.983Z,97890.14
2017-11-12T05:31:44.400Z,97892.59
2017-11-12T05:34:17.252Z,97881.66
2017-11-12T05:36:50.657Z,97877.98
2017-11-12T05:39:23.686Z,97878.08
2017-11-12T05:41:55.813Z,97874.31
2017-11-12T05:44:27.210Z,97878.49
2017-11-12T05:46:58.232Z,97876.28
2017-11-12T05:49:29.017Z,97883.48
2017-11-12T05:52:01.546Z,97880.31
2017-11-12T05:54:32.714Z,97877.92
2017-11-12T05:57:04.542Z,97874.13
2017-11-12T05:59:35.738Z,97879.30
2017-11-12T06:02:06.500Z,97871.73
2017-11-12T06:04:40.984Z,97869.31
2017-11-12T06:07:15.810Z,97862.53
2017-11-12T06:09:51.258Z,97871.79
2017-11-12T06:12:31.785Z,97871.62
2017-11-12T06:15:06.984Z,97867.33
2017-11-12T06:17:53.692Z,97861.66
2017-11-12T06:20:27.670Z,97865.86
2017-11-12T06:22:59.751Z,97868.66
2017-11-12T06:25:35.193Z,97870.15
2017-11-12T06:28:10.969Z,97868.83
2017-11-12T06:30:41.675Z,97866.56
2017-11-12T06:33:12.719Z,97860.94
2017-11-12T06:35:47.301Z,97858.98
2017-11-12T06:38:18.380Z,97850.20
2017-11-12T06:40:52.422Z,97850.56
2017-11-12T06:43:27.342Z,97841.01
2017-11-12T06:45:58.729Z,97831.79
2017-11-12T06:48:50.826Z,97826.00
2017-11-12T06:51:24.002Z,97820.41
2017-11-12T06:53:57.324Z,97814.73
2017-11-12T06:56:30.205Z,97816.17
2017-11-12T06:59:00.937Z,97805.66
2017-11-12T07:01:33.271Z,97802.43
2017-11-12T07:04:04.257Z,97803.98
2017-11-12T07:06:38.375Z,97799.72
2017-11-12T07:09:10.016Z,97806.46
2017-11-12T07:11:42.823Z,97798.72
2017-11-12T07:14:13.997Z,97790.89
2017-11-12T07:16:45.109Z,97787.01
2017-11-12T07:19:16.473Z,97793.47
2017-11-12T07:21:51.566Z,97795.20
2017-11-12T07:24:22.388Z,97794.30
2017-11-12T07:26:57.423Z,97790.92
2017-11-12T07:29:29.134Z,97790.02
2017-11-12T07:32:00.260Z,97777.23
2017-11-12T07:34:31.562Z,97777.67
2017-11-12T07:37:02.628Z,97772.23
2017-11-12T07:39:33.817Z,97769.45
2017-11-12T07:42:04.353Z,97765.67
2017-11-12T07:44:37.293Z,97764.17
2017-11-12T07:47:07.795Z,97764.31
2017-11-12T07:49:40.216Z,97753.13
2017-11-12T07:52:11.418Z,97746.55
2017-11-12T07:54:42.570Z,97739.70
2017-11-12T07:57:13.319Z,97729.53
2017-11-12T07:59:44.835Z,97723.66
2017-11-12T08:02:15.725Z,97715.16
2017-11-12T08:04:46.545Z,97707.33
2017-11-12T08:07:17.276Z,97700.63
2017-11-12T08:09:49.379Z,97691.81
2017-11-12T08:12:21.713Z,97687.31
2017-11-12T08:14:54.241Z,97684.14
2017-11-12T08:17:27.060Z,97675.84
2017-11-12T08:20:00.209Z,97672.79
2017-11-12T08:22:33.739Z,97670.39
2017-11-12T08:25:13.636Z,97668.40
2017-11-12T08:27:49.994Z,97667.63
2017-11-12T08:30:24.346Z,97660.37
2017-11-12T08:32:57.824Z,97652.55
2017-11-12T08:35:33.307Z,97648.41
2017-11-12T08:38:07.210Z,97650.61
2017-11-12T08:40:42.208Z,97650.30
2017-11-12T08:43:19.981Z,97648.63
2017-11-12T08:45:57.603Z,97639.88
2017-11-12T08:48:36.227Z,97639.55
2017-11-12T08:51:18.095Z,97625.96
2017-11-12T08:53:49.747Z,97634.97
2017-11-12T08:56:22.744Z,97629.08
2017-11-12T08:59:01.871Z,97621.80
2017-11-12T09:01:48.015Z,97614.73
2017-11-12T09:04:25.719Z,97623.87
2017-11-12T09:07:03.334Z,97617.08
2017-11-12T09:09:39.135Z,97621.08
2017-11-12T09:12:29.207Z,97622.89
2017-11-12T09:20:56.119Z,97608.17
2017-11-12T09:23:33.538Z,97604.63
2017-11-12T09:26:08.762Z,97600.61
2017-11-12T09:28:41.860Z,97595.76
2017-11-12T09:31:13.410Z,97599.30
2017-11-12T09:33:45.009Z,97597.57
2017-11-12T09:36:23.077Z,97585.27
2017-11-12T09:38:54.646Z,97581.31
2017-11-12T09:44:19.671Z,97572.71
2017-11-12T09:46:54.777Z,97574.65
2017-11-12T09:49:26.062Z,97571.88
2017-11-12T09:51:57.433Z,97572.95
2017-11-12T09:54:36.245Z,97568.37
2017-11-12T09:57:07.956Z,97571.11
2017-11-12T09:59:40.592Z,97560.52
2017-11-12T10:02:11.779Z,97551.28
2017-11-12T10:04:43.676Z,97547.09
2017-11-12T10:07:14.559Z,97546.67
2017-11-12T10:09:49.492Z,97544.11
2017-11-12T10:12:34.138Z,97544.19
2017-11-12T10:15:05.450Z,97537.77
2017-11-12T10:17:36.617Z,97528.30
2017-11-12T10:20:14.948Z,97521.70
2017-11-12T10:22:50.953Z,97519.91
2017-11-12T10:25:22.973Z,97520.39
2017-11-12T10:28:01.020Z,97521.22
2017-11-12T10:30:33.113Z,97513.66
2017-11-12T10:33:04.161Z,97518.23
2017-11-12T10:35:41.553Z,97515.33
2017-11-12T10:38:16.878Z,97512.48
2017-11-12T10:40:56.126Z,97510.09
2017-11-12T10:43:35.257Z,97505.86
2017-11-12T10:46:06.505Z,97507.03
2017-11-12T10:48:39.902Z,97513.14
2017-11-12T10:51:15.556Z,97513.20
2017-11-12T10:53:53.142Z,97501.45
2017-11-12T10:56:25.812Z,97492.36
2017-11-12T10:59:00.298Z,97492.88
2017-11-12T11:01:36.334Z,97481.09
2017-11-12T11:07:08.834Z,97470.45
2017-11-12T11:09:42.206Z,97467.30
2017-11-12T11:12:13.175Z,97463.58
2017-11-12T11:14:44.473Z,97467.05
2017-11-12T11:17:15.878Z,97454.74
2017-11-12T11:19:46.955Z,97455.71
2017-11-12T11:22:19.146Z,97452.11
2017-11-12T11:24:51.360Z,97460.42
2017-11-12T11:27:22.310Z,97443.61
2017-11-12T11:29:54.767Z,97417.61
2017-11-12T11:32:26.552Z,97411.61
2017-11-12T11:34:57.637Z,97389.71
2017-11-12T11:37:28.653Z,97375.61
2017-11-12T11:39:59.801Z,97358.48
2017-11-12T11:42:30.851Z,97341.89
2017-11-12T11:45:01.859Z,97316.73
2017-11-12T11:47:32.679Z,97292.34
2017-11-12T11:50:03.466Z,97273.10
2017-11-12T11:52:34.257Z,97263.14
2017-11-12T11:55:06.304Z,97262.37
2017-11-12T11:57:37.736Z,97259.31
2017-11-12T12:00:13.744Z,97261.20
2017-11-12T12:02:44.768Z,97269.25
2017-11-12T12:05:16.944Z,97276.22
2017-11-12T12:07:51.634Z,97292.18
2017-11-12T12:10:24.843Z,97299.51
2017-11-12T12:13:01.016Z,97291.38
2017-11-12T12:15:38.173Z,97308.05
2017-11-12T12:18:18.701Z,97289.11
2017-11-12T12:20:49.876Z,97272.20
2017-11-12T12:23:21.203Z,97263.27
2017-11-12T12:26:02.122Z,97261.66
2017-11-12T12:28:38.960Z,97241.55
2017-11-12T12:31:11.707Z,97241.61
2017-11-12T12:33:52.648Z,97251.17
2017-11-12T12:36:23.784Z,97234.93
2017-11-12T12:38:58.593Z,97240.77
2017-11-12T12:41:30.982Z,97233.87
2017-11-12T12:44:04.306Z,97238.31
2017-11-12T12:46:41.220Z,97251.00
2017-11-12T12:49:12.924Z,97256.83
2017-11-12T12:51:47.052Z,97249.70
2017-11-12T12:54:17.671Z,97252.60
2017-11-12T12:56:49.021Z,97239.97
2017-11-12T12:59:20.100Z,97227.08
2017-11-12T13:02:01.860Z,97221.73
2017-11-12T13:04:41.607Z,97210.05
2017-11-12T13:07:31.968Z,97186.47
2017-11-12T13:10:21.086Z,97165.63
2017-11-12T13:13:03.192Z,97160.70
2017-11-12T13:15:41.793Z,97181.27
2017-11-12T13:18:13.411Z,97173.99
2017-11-12T13:20:45.045Z,97172.00
2017-11-12T13:23:16.109Z,97178.58
2017-11-12T13:25:47.046Z,97180.80
2017-11-12T13:28:23.294Z,97177.11
2017-11-12T13:30:54.302Z,97180.13
2017-11-12T13:33:25.500Z,97184.34
2017-11-12T13:35:56.629Z,97182.30
2017-11-12T13:38:28.209Z,97178.91
2017-11-12T13:40:59.546Z,97185.84
2017-11-12T13:43:30.883Z,97186.55
2017-11-12T13:46:02.866Z,97189.81
2017-11-12T13:48:34.728Z,97183.09
2017-11-12T13:51:09.894Z,97180.73
2017-11-12T13:53:40.666Z,97174.50
2017-11-12T13:56:15.608Z,97171.23
2017-11-12T13:58:46.814Z,97170.33
2017-11-12T14:01:18.660Z,97157.64
2017-11-12T14:03:51.012Z,97160.00
2017-11-12T14:06:21.967Z,97163.55
2017-11-12T14:08:53.951Z,97158.46
2017-11-12T14:11:25.799Z,97155.55
2017-11-12T14:13:56.350Z,97157.36
2017-11-12T14:16:27.658Z,97151.97
2017-11-12T14:18:58.706Z,97154.71
2017-11-12T14:21:30.427Z,97158.32
2017-11-12T14:24:01.800Z,97155.98
2017-11-12T14:26:32.583Z,97157.15
2017-11-12T14:29:03.272Z,97156.16
2017-11-12T14:31:34.384Z,97149.63
2017-11-12T14:34:05.061Z,97143.27
2017-11-12T14:36:35.744Z,97143.83
2017-11-12T14:39:07.183Z,97143.17
2017-11-12T14:41:38.066Z,97137.94
2017-11-12T14:44:09.642Z,97136.89
2017-11-12T14:46:40.341Z,97141.47
2017-11-12T14:49:11.592Z,97152.98
2017-11-12T14:51:42.349Z,97156.20
2017-11-12T14:54:14.945Z,97165.24
2017-11-12T14:56:48.185Z,97170.20
2017-11-12T14:59:19.080Z,97173.34
2017-11-12T15:01:50.820Z,97169.77
2017-11-12T15:04:21.905Z,97166.81
2017-11-12T15:06:52.751Z,97147.41
2017-11-12T15:09:26.041Z,97137.73
2017-11-12T15:11:57.162Z,97129.81
2017-11-12T15:14:28.806Z,97125.08
2017-11-12T15:17:00.190Z,97121.77
2017-11-12T15:19:31.387Z,97112.98
2017-11-12T15:22:03.178Z,97124.53
2017-11-12T15:24:35.432Z,97122.05
2017-11-12T15:27:06.789Z,97097.48
2017-11-12T15:29:37.434Z,97081.55
2017-11-12T15:32:10.748Z,97077.02
2017-11-12T15:37:17.956Z,97042.20
2017-11-12T15:39:49.896Z,97018.75
2017-11-12T15:42:20.993Z,97034.75
2017-11-12T15:44:52.036Z,97061.00
2017-11-12T15:47:24.747Z,97070.69
2017-11-12T15:49:56.281Z,97064.84
2017-11-12T15:52:27.098Z,97066.50
2017-11-12T15:54:58.422Z,97085.25
2017-11-12T15:57:30.825Z,97092.50
2017-11-12T16:00:02.710Z,97090.98
2017-11-12T16:02:33.756Z,97055.30
2017-11-12T16:05:04.673Z,97050.91
2017-11-12T16:07:39.053Z,97062.28
2017-11-12T16:10:12.766Z,97095.17
2017-11-12T16:12:45.981Z,97114.78
2017-11-12T16:15:18.003Z,97126.47
2017-11-12T16:17:52.109Z,97138.68
2017-11-12T16:20:25.697Z,97138.23
2017-11-12T16:22:59.393Z,97136.92
2017-11-12T16:25:32.761Z,97150.37
2017-11-12T16:28:05.757Z,97152.11
2017-11-12T16:47:38.787Z,97122.28
2017-11-12T17:08:39.117Z,97125.73
2017-11-12T17:11:26.446Z,97139.30
2017-11-12T17:13:57.309Z,97146.69
2017-11-12T17:16:32.195Z,97157.59
2017-11-12T17:19:03.551Z,97170.08
2017-11-12T17:21:34.916Z,97161.78
2017-11-12T17:24:05.932Z,97174.14
2017-11-12T17:26:50.515Z,97171.09
2017-11-12T17:29:23.032Z,97165.29
2017-11-12T17:31:57.375Z,97161.45
2017-11-12T17:34:28.385Z,97172.86
2017-11-12T17:37:01.534Z,97197.98
2017-11-12T17:39:33.666Z,97213.25
2017-11-12T17:42:05.614Z,97216.81
2017-11-12T17:44:40.264Z,97229.72
2017-11-12T17:47:14.419Z,97234.91
2017-11-12T17:49:47.089Z,97233.39
2017-11-12T17:52:29.906Z,97229.33
2017-11-12T17:55:13.747Z,97218.70
2017-11-12T17:57:45.828Z,97215.48
2017-11-12T18:00:18.070Z,97219.06
2017-11-12T18:05:55.473Z,97225.80
2017-11-12T18:11:55.374Z,97236.06
2017-11-12T18:14:41.051Z,97228.66
2017-11-12T18:17:19.616Z,97226.35
2017-11-12T18:19:52.979Z,97228.70
2017-11-12T18:23:58.568Z,97243.52
2017-11-12T18:32:58.557Z,97281.65
2017-11-12T18:35:36.277Z,97287.53
2017-11-12T18:38:13.824Z,97298.03
2017-11-12T18:43:37.798Z,97312.51
2017-11-12T18:46:17.517Z,97315.84
2017-11-12T18:52:29.384Z,97329.86
2017-11-12T18:55:08.457Z,97337.73
2017-11-12T18:57:45.974Z,97338.67
2017-11-12T19:02:56.523Z,97343.44
2017-11-12T19:05:31.289Z,97343.88
2017-11-12T19:08:05.624Z,97353.91
2017-11-12T19:10:40.237Z,97356.03
2017-11-12T19:13:18.157Z,97358.04
2017-11-12T19:15:53.217Z,97361.15
2017-11-12T19:18:27.110Z,97375.83
2017-11-12T19:21:01.168Z,97379.62
2017-11-12T19:23:34.386Z,97389.74
2017-11-12T19:26:11.060Z,97399.36
2017-11-12T19:28:45.219Z,97402.05
2017-11-12T19:31:21.033Z,97402.37
2017-11-12T19:33:54.103Z,97412.77
2017-11-12T19:36:25.895Z,97413.34
2017-11-12T19:38:58.207Z,97420.11
2017-11-12T19:45:35.875Z,97430.27
2017-11-12T19:48:06.896Z,97437.95
2017-11-12T19:50:38.053Z,97441.70
2017-11-12T19:53:08.937Z,97451.50
2017-11-12T19:55:40.041Z,97454.84
2017-11-12T19:58:44.669Z,97458.91
2017-11-12T20:01:51.726Z,97465.36
2017-11-12T20:13:49.253Z,97472.70
2017-11-12T20:16:31.221Z,97485.52
2017-11-12T20:19:03.288Z,97491.87
2017-11-12T20:21:35.166Z,97495.66
2017-11-12T20:24:06.178Z,97494.75
2017-11-12T20:26:37.832Z,97502.42
2017-11-12T20:29:09.313Z,97509.28
2017-11-12T20:31:40.092Z,97509.53
2017-11-12T20:34:11.479Z,97508.47
2017-11-12T20:50:51.938Z,97526.32
2017-11-12T22:39:41.860Z,97673.51
2017-11-12T22:42:14.712Z,97683.80
2017-11-12T22:44:46.588Z,97679.69
2017-11-12T22:47:18.319Z,97681.95
2017-11-12T22:49:53.534Z,97690.99
2017-11-12T22:52:28.995Z,97694.37
2017-11-12T22:55:00.952Z,97699.63
2017-11-12T22:57:49.633Z,97705.33
2017-11-12T23:00:27.723Z,97710.38
2017-11-12T23:03:17.180Z,97720.81
2017-11-12T23:05:58.373Z,97729.36
2017-11-12T23:08:29.515Z,97723.71
2017-11-12T23:11:01.201Z,97733.50
2017-11-12T23:13:53.047Z,97729.47
2017-11-12T23:16:25.761Z,97736.49
2017-11-12T23:19:07.350Z,97738.03
2017-11-12T23:21:40.109Z,97741.20
2017-11-12T23:24:15.803Z,97741.41
2017-11-12T23:26:48.503Z,97739.27
2017-11-12T23:29:19.609Z,97738.82
2017-11-12T23:31:52.293Z,97745.15
2017-11-12T23:34:28.362Z,97748.73
2017-11-12T23:37:07.039Z,97748.31
2017-11-12T23:39:38.434Z,97753.90
2017-11-12T23:42:17.299Z,97757.63
2017-11-12T23:44:48.263Z,97756.23
2017-11-12T23:47:30.248Z,97761.48
2017-11-12T23:50:03.322Z,97763.57
2017-11-12T23:52:41.751Z,97761.87
2017-11-12T23:55:14.838Z,97763.98
2017-11-12T23:57:49.700Z,97767.39
